sensor_id;sensor_type;location;lat;lon;timestamp;temperature;humidity
71084;DHT22;58741;52.672;13.548;2023-06-05T00:02:11;11.40;67.50
71084;DHT22;58741;52.672;13.548;2023-06-05T00:04:38;11.40;67.50
71084;DHT22;58741;52.672;13.548;2023-06-05T00:07:05;11.40;67.60
71084;DHT22;58741;52.672;13.548;2023-06-05T00:09:31;11.40;67.60
71084;DHT22;58741;52.672;13.548;2023-06-05T00:11:56;11.40;67.80
71084;DHT22;58741;52.672;13.548;2023-06-05T00:14:22;11.40;68.30
71084;DHT22;58741;52.672;13.548;2023-06-05T00:16:48;11.40;67.70
71084;DHT22;58741;52.672;13.548;2023-06-05T00:19:15;11.30;67.60
71084;DHT22;58741;52.672;13.548;2023-06-05T00:21:41;11.30;68.20
71084;DHT22;58741;52.672;13.548;2023-06-05T00:24:06;11.30;68.60
71084;DHT22;58741;52.672;13.548;2023-06-05T00:26:32;11.20;68.30
71084;DHT22;58741;52.672;13.548;2023-06-05T00:28:57;11.20;68.20
71084;DHT22;58741;52.672;13.548;2023-06-05T00:31:23;11.20;68.30
71084;DHT22;58741;52.672;13.548;2023-06-05T00:33:49;11.20;68.40
71084;DHT22;58741;52.672;13.548;2023-06-05T00:36:16;11.10;68.30
71084;DHT22;58741;52.672;13.548;2023-06-05T00:38:43;11.10;68.30
71084;DHT22;58741;52.672;13.548;2023-06-05T00:41:08;11.10;68.50
71084;DHT22;58741;52.672;13.548;2023-06-05T00:43:34;11.00;68.60
71084;DHT22;58741;52.672;13.548;2023-06-05T00:46:02;11.00;69.00
71084;DHT22;58741;52.672;13.548;2023-06-05T00:48:29;10.90;68.90
71084;DHT22;58741;52.672;13.548;2023-06-05T00:50:55;10.90;69.40
71084;DHT22;58741;52.672;13.548;2023-06-05T00:53:24;10.90;69.50
71084;DHT22;58741;52.672;13.548;2023-06-05T00:55:50;10.80;69.60
71084;DHT22;58741;52.672;13.548;2023-06-05T00:58:16;10.70;69.90
71084;DHT22;58741;52.672;13.548;2023-06-05T01:00:43;10.70;70.00
71084;DHT22;58741;52.672;13.548;2023-06-05T01:03:11;10.70;70.60
71084;DHT22;58741;52.672;13.548;2023-06-05T01:05:38;10.70;71.10
71084;DHT22;58741;52.672;13.548;2023-06-05T01:08:04;10.60;71.10
71084;DHT22;58741;52.672;13.548;2023-06-05T01:10:31;10.60;71.60
71084;DHT22;58741;52.672;13.548;2023-06-05T01:13:12;10.50;72.10
71084;DHT22;58741;52.672;13.548;2023-06-05T01:15:43;10.50;72.10
71084;DHT22;58741;52.672;13.548;2023-06-05T01:18:10;10.50;72.50
71084;DHT22;58741;52.672;13.548;2023-06-05T01:20:37;10.40;72.70
71084;DHT22;58741;52.672;13.548;2023-06-05T01:23:10;10.40;73.60
71084;DHT22;58741;52.672;13.548;2023-06-05T01:25:36;10.40;73.10
71084;DHT22;58741;52.672;13.548;2023-06-05T01:28:26;10.30;73.20
71084;DHT22;58741;52.672;13.548;2023-06-05T01:33:35;10.20;73.70
71084;DHT22;58741;52.672;13.548;2023-06-05T01:36:11;10.20;74.70
71084;DHT22;58741;52.672;13.548;2023-06-05T01:38:39;10.20;74.80
71084;DHT22;58741;52.672;13.548;2023-06-05T01:41:06;10.10;75.20
71084;DHT22;58741;52.672;13.548;2023-06-05T01:43:33;10.10;74.90
71084;DHT22;58741;52.672;13.548;2023-06-05T01:45:59;10.00;75.50
71084;DHT22;58741;52.672;13.548;2023-06-05T01:48:26;10.00;76.00
71084;DHT22;58741;52.672;13.548;2023-06-05T01:50:59;10.00;76.00
71084;DHT22;58741;52.672;13.548;2023-06-05T01:53:26;10.00;76.00
71084;DHT22;58741;52.672;13.548;2023-06-05T01:55:53;9.90;75.90
71084;DHT22;58741;52.672;13.548;2023-06-05T01:58:22;9.90;75.70
71084;DHT22;58741;52.672;13.548;2023-06-05T02:00:48;9.90;75.90
71084;DHT22;58741;52.672;13.548;2023-06-05T02:03:14;9.80;76.00
71084;DHT22;58741;52.672;13.548;2023-06-05T02:05:42;9.80;75.80
71084;DHT22;58741;52.672;13.548;2023-06-05T02:08:07;9.80;77.30
71084;DHT22;58741;52.672;13.548;2023-06-05T02:10:35;9.80;77.10
71084;DHT22;58741;52.672;13.548;2023-06-05T02:13:01;9.70;77.10
71084;DHT22;58741;52.672;13.548;2023-06-05T02:15:28;9.70;77.40
71084;DHT22;58741;52.672;13.548;2023-06-05T02:17:59;9.70;77.60
71084;DHT22;58741;52.672;13.548;2023-06-05T02:20:27;9.70;78.00
71084;DHT22;58741;52.672;13.548;2023-06-05T02:22:53;9.60;77.80
71084;DHT22;58741;52.672;13.548;2023-06-05T02:25:20;9.60;78.10
71084;DHT22;58741;52.672;13.548;2023-06-05T02:27:48;9.60;78.50
71084;DHT22;58741;52.672;13.548;2023-06-05T02:30:13;9.60;78.70
71084;DHT22;58741;52.672;13.548;2023-06-05T02:32:39;9.50;78.90
71084;DHT22;58741;52.672;13.548;2023-06-05T02:35:10;9.50;79.50
71084;DHT22;58741;52.672;13.548;2023-06-05T02:37:37;9.50;79.50
71084;DHT22;58741;52.672;13.548;2023-06-05T02:40:09;9.50;79.60
71084;DHT22;58741;52.672;13.548;2023-06-05T02:42:36;9.50;79.70
71084;DHT22;58741;52.672;13.548;2023-06-05T02:45:03;9.40;79.50
71084;DHT22;58741;52.672;13.548;2023-06-05T02:47:29;9.40;79.90
71084;DHT22;58741;52.672;13.548;2023-06-05T02:49:56;9.40;80.00
71084;DHT22;58741;52.672;13.548;2023-06-05T02:52:21;9.30;80.30
71084;DHT22;58741;52.672;13.548;2023-06-05T02:54:47;9.30;80.70
71084;DHT22;58741;52.672;13.548;2023-06-05T02:57:13;9.30;80.80
71084;DHT22;58741;52.672;13.548;2023-06-05T02:59:41;9.20;81.10
71084;DHT22;58741;52.672;13.548;2023-06-05T03:02:11;9.30;81.60
71084;DHT22;58741;52.672;13.548;2023-06-05T03:04:38;9.20;82.30
71084;DHT22;58741;52.672;13.548;2023-06-05T03:07:06;9.20;82.90
71084;DHT22;58741;52.672;13.548;2023-06-05T03:09:33;9.20;83.00
71084;DHT22;58741;52.672;13.548;2023-06-05T03:11:59;9.20;83.70
71084;DHT22;58741;52.672;13.548;2023-06-05T03:14:26;9.20;83.30
71084;DHT22;58741;52.672;13.548;2023-06-05T03:16:53;9.20;84.00
71084;DHT22;58741;52.672;13.548;2023-06-05T03:19:20;9.20;85.50
71084;DHT22;58741;52.672;13.548;2023-06-05T03:21:46;9.20;84.10
71084;DHT22;58741;52.672;13.548;2023-06-05T03:24:13;9.20;84.40
71084;DHT22;58741;52.672;13.548;2023-06-05T03:26:41;9.20;84.40
71084;DHT22;58741;52.672;13.548;2023-06-05T03:29:09;9.20;85.00
71084;DHT22;58741;52.672;13.548;2023-06-05T03:31:35;9.20;84.70
71084;DHT22;58741;52.672;13.548;2023-06-05T03:34:01;9.20;85.90
71084;DHT22;58741;52.672;13.548;2023-06-05T03:36:28;9.20;86.10
71084;DHT22;58741;52.672;13.548;2023-06-05T03:38:56;9.20;87.30
71084;DHT22;58741;52.672;13.548;2023-06-05T03:41:23;9.20;86.50
71084;DHT22;58741;52.672;13.548;2023-06-05T03:43:49;9.20;86.60
71084;DHT22;58741;52.672;13.548;2023-06-05T03:46:16;9.30;86.40
71084;DHT22;58741;52.672;13.548;2023-06-05T03:48:48;9.30;86.50
71084;DHT22;58741;52.672;13.548;2023-06-05T03:51:26;9.30;87.30
71084;DHT22;58741;52.672;13.548;2023-06-05T03:53:56;9.30;89.60
71084;DHT22;58741;52.672;13.548;2023-06-05T03:56:24;9.30;88.50
71084;DHT22;58741;52.672;13.548;2023-06-05T03:58:55;9.40;88.80
71084;DHT22;58741;52.672;13.548;2023-06-05T04:01:21;9.40;88.60
71084;DHT22;58741;52.672;13.548;2023-06-05T04:03:47;9.40;88.40
71084;DHT22;58741;52.672;13.548;2023-06-05T04:06:12;9.50;88.80
71084;DHT22;58741;52.672;13.548;2023-06-05T04:08:38;9.50;89.10
71084;DHT22;58741;52.672;13.548;2023-06-05T04:11:04;9.60;89.80
71084;DHT22;58741;52.672;13.548;2023-06-05T04:13:30;9.60;89.20
71084;DHT22;58741;52.672;13.548;2023-06-05T04:15:55;9.60;90.50
71084;DHT22;58741;52.672;13.548;2023-06-05T04:18:21;9.70;90.80
71084;DHT22;58741;52.672;13.548;2023-06-05T04:20:49;9.80;90.90
71084;DHT22;58741;52.672;13.548;2023-06-05T04:23:16;9.80;91.30
71084;DHT22;58741;52.672;13.548;2023-06-05T04:25:43;9.90;90.90
71084;DHT22;58741;52.672;13.548;2023-06-05T04:28:11;9.90;90.60
71084;DHT22;58741;52.672;13.548;2023-06-05T04:30:37;10.00;90.90
71084;DHT22;58741;52.672;13.548;2023-06-05T04:33:03;10.10;90.80
71084;DHT22;58741;52.672;13.548;2023-06-05T04:35:31;10.20;91.50
71084;DHT22;58741;52.672;13.548;2023-06-05T04:37:59;10.20;92.00
71084;DHT22;58741;52.672;13.548;2023-06-05T04:40:24;10.30;91.40
71084;DHT22;58741;52.672;13.548;2023-06-05T04:42:51;10.40;90.90
71084;DHT22;58741;52.672;13.548;2023-06-05T04:45:19;10.50;90.80
71084;DHT22;58741;52.672;13.548;2023-06-05T04:47:47;10.60;91.30
71084;DHT22;58741;52.672;13.548;2023-06-05T04:50:23;10.80;90.80
71084;DHT22;58741;52.672;13.548;2023-06-05T04:52:56;10.90;91.10
71084;DHT22;58741;52.672;13.548;2023-06-05T04:55:22;11.00;90.50
71084;DHT22;58741;52.672;13.548;2023-06-05T04:57:51;11.10;89.80
71084;DHT22;58741;52.672;13.548;2023-06-05T05:00:17;11.30;88.30
71084;DHT22;58741;52.672;13.548;2023-06-05T05:02:44;11.40;89.30
71084;DHT22;58741;52.672;13.548;2023-06-05T05:05:10;11.60;88.90
71084;DHT22;58741;52.672;13.548;2023-06-05T05:07:40;11.70;86.80
71084;DHT22;58741;52.672;13.548;2023-06-05T05:10:07;11.80;88.30
71084;DHT22;58741;52.672;13.548;2023-06-05T05:12:34;12.00;87.50
71084;DHT22;58741;52.672;13.548;2023-06-05T05:15:01;12.10;86.60
71084;DHT22;58741;52.672;13.548;2023-06-05T05:17:27;12.30;85.60
71084;DHT22;58741;52.672;13.548;2023-06-05T05:19:53;12.50;85.80
71084;DHT22;58741;52.672;13.548;2023-06-05T05:22:18;12.60;85.20
71084;DHT22;58741;52.672;13.548;2023-06-05T05:24:44;12.80;84.70
71084;DHT22;58741;52.672;13.548;2023-06-05T05:27:10;12.90;84.90
71084;DHT22;58741;52.672;13.548;2023-06-05T05:29:36;13.10;85.40
71084;DHT22;58741;52.672;13.548;2023-06-05T05:32:02;13.30;83.00
71084;DHT22;58741;52.672;13.548;2023-06-05T05:34:29;13.50;82.50
71084;DHT22;58741;52.672;13.548;2023-06-05T05:36:54;13.70;83.30
71084;DHT22;58741;52.672;13.548;2023-06-05T05:39:32;13.90;81.90
71084;DHT22;58741;52.672;13.548;2023-06-05T05:41:58;14.10;82.10
71084;DHT22;58741;52.672;13.548;2023-06-05T05:44:26;14.40;81.80
71084;DHT22;58741;52.672;13.548;2023-06-05T05:46:51;14.50;80.00
71084;DHT22;58741;52.672;13.548;2023-06-05T05:49:17;14.70;80.50
71084;DHT22;58741;52.672;13.548;2023-06-05T05:51:42;14.90;79.30
71084;DHT22;58741;52.672;13.548;2023-06-05T05:54:08;15.20;78.20
71084;DHT22;58741;52.672;13.548;2023-06-05T05:56:33;15.40;77.20
71084;DHT22;58741;52.672;13.548;2023-06-05T05:59:01;15.60;75.90
71084;DHT22;58741;52.672;13.548;2023-06-05T06:01:27;15.90;75.60
71084;DHT22;58741;52.672;13.548;2023-06-05T06:03:53;16.00;74.90
71084;DHT22;58741;52.672;13.548;2023-06-05T06:06:20;16.20;73.20
71084;DHT22;58741;52.672;13.548;2023-06-05T06:08:45;16.40;74.00
71084;DHT22;58741;52.672;13.548;2023-06-05T06:11:12;16.60;73.60
71084;DHT22;58741;52.672;13.548;2023-06-05T06:13:58;16.80;71.30
71084;DHT22;58741;52.672;13.548;2023-06-05T06:16:24;17.10;70.50
71084;DHT22;58741;52.672;13.548;2023-06-05T06:18:50;17.30;70.60
71084;DHT22;58741;52.672;13.548;2023-06-05T06:21:16;17.50;68.40
71084;DHT22;58741;52.672;13.548;2023-06-05T06:23:41;17.70;67.20
71084;DHT22;58741;52.672;13.548;2023-06-05T06:26:07;17.90;65.90
71084;DHT22;58741;52.672;13.548;2023-06-05T06:28:33;18.10;65.60
71084;DHT22;58741;52.672;13.548;2023-06-05T06:30:59;18.30;65.30
71084;DHT22;58741;52.672;13.548;2023-06-05T06:33:24;18.50;64.80
71084;DHT22;58741;52.672;13.548;2023-06-05T06:35:54;18.70;64.40
71084;DHT22;58741;52.672;13.548;2023-06-05T06:38:20;18.90;62.20
71084;DHT22;58741;52.672;13.548;2023-06-05T06:40:46;19.10;61.20
71084;DHT22;58741;52.672;13.548;2023-06-05T06:43:12;19.30;62.20
71084;DHT22;58741;52.672;13.548;2023-06-05T06:45:43;19.50;61.00
71084;DHT22;58741;52.672;13.548;2023-06-05T06:48:08;19.60;58.40
71084;DHT22;58741;52.672;13.548;2023-06-05T06:50:34;19.80;59.70
71084;DHT22;58741;52.672;13.548;2023-06-05T06:54:29;20.10;57.70
71084;DHT22;58741;52.672;13.548;2023-06-05T06:56:55;20.30;57.80
71084;DHT22;58741;52.672;13.548;2023-06-05T06:59:22;20.50;57.80
71084;DHT22;58741;52.672;13.548;2023-06-05T07:02:07;20.70;58.20
71084;DHT22;58741;52.672;13.548;2023-06-05T07:04:33;20.90;58.00
71084;DHT22;58741;52.672;13.548;2023-06-05T07:06:59;21.10;55.60
71084;DHT22;58741;52.672;13.548;2023-06-05T07:09:25;21.20;56.80
71084;DHT22;58741;52.672;13.548;2023-06-05T07:11:50;21.40;56.30
71084;DHT22;58741;52.672;13.548;2023-06-05T07:14:16;21.50;54.30
71084;DHT22;58741;52.672;13.548;2023-06-05T07:16:41;21.70;52.90
71084;DHT22;58741;52.672;13.548;2023-06-05T07:19:07;21.90;54.20
71084;DHT22;58741;52.672;13.548;2023-06-05T07:21:34;22.10;52.80
71084;DHT22;58741;52.672;13.548;2023-06-05T07:24:03;22.20;51.70
71084;DHT22;58741;52.672;13.548;2023-06-05T07:26:29;22.30;52.00
71084;DHT22;58741;52.672;13.548;2023-06-05T07:28:55;22.40;52.80
71084;DHT22;58741;52.672;13.548;2023-06-05T07:31:21;22.60;52.00
71084;DHT22;58741;52.672;13.548;2023-06-05T07:33:47;22.70;51.60
71084;DHT22;58741;52.672;13.548;2023-06-05T07:36:13;22.90;52.00
71084;DHT22;58741;52.672;13.548;2023-06-05T07:38:39;23.00;51.10
71084;DHT22;58741;52.672;13.548;2023-06-05T07:41:08;23.20;51.40
71084;DHT22;58741;52.672;13.548;2023-06-05T07:43:34;23.30;49.80
71084;DHT22;58741;52.672;13.548;2023-06-05T07:45:59;23.50;50.20
71084;DHT22;58741;52.672;13.548;2023-06-05T07:48:25;23.60;49.30
71084;DHT22;58741;52.672;13.548;2023-06-05T07:50:51;23.70;49.40
71084;DHT22;58741;52.672;13.548;2023-06-05T07:53:17;23.90;49.00
71084;DHT22;58741;52.672;13.548;2023-06-05T07:55:42;24.00;48.10
71084;DHT22;58741;52.672;13.548;2023-06-05T07:58:08;24.10;49.00
71084;DHT22;58741;52.672;13.548;2023-06-05T08:00:34;24.30;48.30
71084;DHT22;58741;52.672;13.548;2023-06-05T08:02:59;24.50;47.00
71084;DHT22;58741;52.672;13.548;2023-06-05T08:05:25;24.70;46.20
71084;DHT22;58741;52.672;13.548;2023-06-05T08:07:51;24.80;45.80
71084;DHT22;58741;52.672;13.548;2023-06-05T08:10:17;24.90;46.20
71084;DHT22;58741;52.672;13.548;2023-06-05T08:12:42;25.00;44.40
71084;DHT22;58741;52.672;13.548;2023-06-05T08:15:08;25.00;42.60
71084;DHT22;58741;52.672;13.548;2023-06-05T08:17:34;25.00;44.50
71084;DHT22;58741;52.672;13.548;2023-06-05T08:19:59;25.10;44.10
71084;DHT22;58741;52.672;13.548;2023-06-05T08:22:25;25.20;43.90
71084;DHT22;58741;52.672;13.548;2023-06-05T08:24:51;25.30;44.20
71084;DHT22;58741;52.672;13.548;2023-06-05T08:27:19;25.50;44.30
71084;DHT22;58741;52.672;13.548;2023-06-05T08:29:44;25.60;42.90
71084;DHT22;58741;52.672;13.548;2023-06-05T08:32:10;25.70;41.60
71084;DHT22;58741;52.672;13.548;2023-06-05T08:34:36;25.80;42.30
71084;DHT22;58741;52.672;13.548;2023-06-05T08:37:02;25.90;42.80
71084;DHT22;58741;52.672;13.548;2023-06-05T08:39:28;26.00;42.60
71084;DHT22;58741;52.672;13.548;2023-06-05T08:42:00;26.10;42.30
71084;DHT22;58741;52.672;13.548;2023-06-05T08:44:28;26.20;42.20
71084;DHT22;58741;52.672;13.548;2023-06-05T08:47:00;26.20;41.00
71084;DHT22;58741;52.672;13.548;2023-06-05T08:49:27;26.30;41.60
71084;DHT22;58741;52.672;13.548;2023-06-05T08:51:57;26.40;40.90
71084;DHT22;58741;52.672;13.548;2023-06-05T08:54:26;26.50;42.10
71084;DHT22;58741;52.672;13.548;2023-06-05T08:56:52;26.70;42.10
71084;DHT22;58741;52.672;13.548;2023-06-05T08:59:18;26.70;40.10
71084;DHT22;58741;52.672;13.548;2023-06-05T09:01:49;26.90;41.60
71084;DHT22;58741;52.672;13.548;2023-06-05T09:04:15;27.00;42.10
71084;DHT22;58741;52.672;13.548;2023-06-05T09:06:45;27.10;41.20
71084;DHT22;58741;52.672;13.548;2023-06-05T09:09:14;27.30;40.20
71084;DHT22;58741;52.672;13.548;2023-06-05T09:11:39;27.40;40.00
71084;DHT22;58741;52.672;13.548;2023-06-05T09:14:05;27.40;40.40
71084;DHT22;58741;52.672;13.548;2023-06-05T09:16:39;27.50;40.10
71084;DHT22;58741;52.672;13.548;2023-06-05T09:19:07;27.50;38.90
71084;DHT22;58741;52.672;13.548;2023-06-05T09:21:33;27.60;39.40
71084;DHT22;58741;52.672;13.548;2023-06-05T09:24:21;27.60;40.30
71084;DHT22;58741;52.672;13.548;2023-06-05T09:26:56;27.70;39.90
71084;DHT22;58741;52.672;13.548;2023-06-05T09:29:23;27.80;38.50
71084;DHT22;58741;52.672;13.548;2023-06-05T09:31:51;27.80;39.10
71084;DHT22;58741;52.672;13.548;2023-06-05T09:34:28;27.90;38.40
71084;DHT22;58741;52.672;13.548;2023-06-05T09:36:59;27.90;38.40
71084;DHT22;58741;52.672;13.548;2023-06-05T09:39:26;27.90;37.00
71084;DHT22;58741;52.672;13.548;2023-06-05T09:41:52;27.80;38.30
71084;DHT22;58741;52.672;13.548;2023-06-05T09:44:19;27.90;38.70
71084;DHT22;58741;52.672;13.548;2023-06-05T09:49:23;27.90;38.00
71084;DHT22;58741;52.672;13.548;2023-06-05T09:51:50;27.90;38.60
71084;DHT22;58741;52.672;13.548;2023-06-05T09:54:16;27.90;38.50
71084;DHT22;58741;52.672;13.548;2023-06-05T09:56:47;28.10;39.40
71084;DHT22;58741;52.672;13.548;2023-06-05T09:59:21;28.20;38.30
71084;DHT22;58741;52.672;13.548;2023-06-05T10:01:52;28.30;38.10
71084;DHT22;58741;52.672;13.548;2023-06-05T10:04:25;28.30;38.30
71084;DHT22;58741;52.672;13.548;2023-06-05T10:06:53;28.40;37.00
71084;DHT22;58741;52.672;13.548;2023-06-05T10:09:20;28.40;38.30
71084;DHT22;58741;52.672;13.548;2023-06-05T10:11:49;28.40;38.50
71084;DHT22;58741;52.672;13.548;2023-06-05T10:14:16;28.30;38.10
71084;DHT22;58741;52.672;13.548;2023-06-05T10:16:43;28.30;37.50
71084;DHT22;58741;52.672;13.548;2023-06-05T10:19:11;28.30;38.20
71084;DHT22;58741;52.672;13.548;2023-06-05T10:21:37;28.30;38.00
71084;DHT22;58741;52.672;13.548;2023-06-05T10:24:08;28.30;38.30
71084;DHT22;58741;52.672;13.548;2023-06-05T10:32:06;28.70;37.30
71084;DHT22;58741;52.672;13.548;2023-06-05T10:39:59;28.90;36.90
71084;DHT22;58741;52.672;13.548;2023-06-05T10:42:28;28.90;37.80
71084;DHT22;58741;52.672;13.548;2023-06-05T10:44:55;28.90;36.50
71084;DHT22;58741;52.672;13.548;2023-06-05T10:52:43;29.10;37.50
71084;DHT22;58741;52.672;13.548;2023-06-05T10:55:12;29.10;36.70
71084;DHT22;58741;52.672;13.548;2023-06-05T11:00:36;29.30;37.90
71084;DHT22;58741;52.672;13.548;2023-06-05T11:03:02;29.40;37.30
71084;DHT22;58741;52.672;13.548;2023-06-05T11:05:29;29.40;37.20
71084;DHT22;58741;52.672;13.548;2023-06-05T11:08:15;29.60;37.50
71084;DHT22;58741;52.672;13.548;2023-06-05T11:11:05;29.60;36.50
71084;DHT22;58741;52.672;13.548;2023-06-05T11:13:56;29.70;36.70
71084;DHT22;58741;52.672;13.548;2023-06-05T11:16:31;29.80;35.00
71084;DHT22;58741;52.672;13.548;2023-06-05T11:24:28;29.90;34.30
71084;DHT22;58741;52.672;13.548;2023-06-05T11:26:53;29.90;35.40
71084;DHT22;58741;52.672;13.548;2023-06-05T11:29:19;29.90;34.40
71084;DHT22;58741;52.672;13.548;2023-06-05T11:31:45;29.80;34.80
71084;DHT22;58741;52.672;13.548;2023-06-05T11:34:12;29.80;34.10
71084;DHT22;58741;52.672;13.548;2023-06-05T11:36:39;29.70;36.10
71084;DHT22;58741;52.672;13.548;2023-06-05T11:39:05;29.80;36.40
71084;DHT22;58741;52.672;13.548;2023-06-05T11:41:31;29.90;34.70
71084;DHT22;58741;52.672;13.548;2023-06-05T11:43:57;29.90;34.50
71084;DHT22;58741;52.672;13.548;2023-06-05T11:46:39;29.90;35.00
71084;DHT22;58741;52.672;13.548;2023-06-05T11:49:05;29.90;34.20
71084;DHT22;58741;52.672;13.548;2023-06-05T11:51:34;29.90;35.10
71084;DHT22;58741;52.672;13.548;2023-06-05T11:54:00;29.90;35.40
71084;DHT22;58741;52.672;13.548;2023-06-05T11:56:27;30.00;35.20
71084;DHT22;58741;52.672;13.548;2023-06-05T11:58:54;30.00;36.40
71084;DHT22;58741;52.672;13.548;2023-06-05T12:01:20;30.00;34.80
71084;DHT22;58741;52.672;13.548;2023-06-05T12:04:07;30.10;34.90
71084;DHT22;58741;52.672;13.548;2023-06-05T12:06:40;30.10;34.40
71084;DHT22;58741;52.672;13.548;2023-06-05T12:09:08;30.20;34.90
71084;DHT22;58741;52.672;13.548;2023-06-05T12:11:37;30.20;36.40
71084;DHT22;58741;52.672;13.548;2023-06-05T12:14:10;30.30;34.70
71084;DHT22;58741;52.672;13.548;2023-06-05T12:16:38;30.30;34.40
71084;DHT22;58741;52.672;13.548;2023-06-05T12:19:14;30.40;35.00
71084;DHT22;58741;52.672;13.548;2023-06-05T12:21:41;30.50;34.50
71084;DHT22;58741;52.672;13.548;2023-06-05T12:24:07;30.40;34.50
71084;DHT22;58741;52.672;13.548;2023-06-05T12:26:52;30.60;34.50
71084;DHT22;58741;52.672;13.548;2023-06-05T12:29:20;30.60;34.10
71084;DHT22;58741;52.672;13.548;2023-06-05T12:31:46;30.60;33.80
71084;DHT22;58741;52.672;13.548;2023-06-05T12:34:12;30.60;33.90
71084;DHT22;58741;52.672;13.548;2023-06-05T12:36:39;30.50;33.20
71084;DHT22;58741;52.672;13.548;2023-06-05T12:39:05;30.50;34.00
71084;DHT22;58741;52.672;13.548;2023-06-05T12:41:35;30.50;34.00
71084;DHT22;58741;52.672;13.548;2023-06-05T12:44:02;30.50;34.70
71084;DHT22;58741;52.672;13.548;2023-06-05T12:46:32;30.50;34.50
71084;DHT22;58741;52.672;13.548;2023-06-05T12:48:59;30.60;34.50
71084;DHT22;58741;52.672;13.548;2023-06-05T12:51:26;30.60;34.20
71084;DHT22;58741;52.672;13.548;2023-06-05T12:53:55;30.70;34.10
71084;DHT22;58741;52.672;13.548;2023-06-05T12:56:22;30.60;34.20
71084;DHT22;58741;52.672;13.548;2023-06-05T12:58:56;30.60;34.30
71084;DHT22;58741;52.672;13.548;2023-06-05T13:01:25;30.60;34.00
71084;DHT22;58741;52.672;13.548;2023-06-05T13:03:52;30.70;34.10
71084;DHT22;58741;52.672;13.548;2023-06-05T13:06:18;30.80;33.90
71084;DHT22;58741;52.672;13.548;2023-06-05T13:08:44;30.80;34.00
71084;DHT22;58741;52.672;13.548;2023-06-05T13:11:11;30.80;33.70
71084;DHT22;58741;52.672;13.548;2023-06-05T13:13:37;30.80;33.50
71084;DHT22;58741;52.672;13.548;2023-06-05T13:16:03;30.80;33.90
71084;DHT22;58741;52.672;13.548;2023-06-05T13:18:32;30.90;33.40
71084;DHT22;58741;52.672;13.548;2023-06-05T13:20:59;30.90;33.70
71084;DHT22;58741;52.672;13.548;2023-06-05T13:23:24;30.90;33.00
71084;DHT22;58741;52.672;13.548;2023-06-05T13:25:50;30.80;33.90
71084;DHT22;58741;52.672;13.548;2023-06-05T13:28:16;30.70;33.40
71084;DHT22;58741;52.672;13.548;2023-06-05T13:30:42;30.70;33.70
71084;DHT22;58741;52.672;13.548;2023-06-05T13:33:07;30.70;33.70
71084;DHT22;58741;52.672;13.548;2023-06-05T13:35:33;30.70;33.10
71084;DHT22;58741;52.672;13.548;2023-06-05T13:37:59;30.60;33.90
71084;DHT22;58741;52.672;13.548;2023-06-05T13:40:25;30.70;34.10
71084;DHT22;58741;52.672;13.548;2023-06-05T13:42:53;30.80;35.00
71084;DHT22;58741;52.672;13.548;2023-06-05T13:45:19;30.80;34.40
71084;DHT22;58741;52.672;13.548;2023-06-05T13:47:45;30.90;34.10
71084;DHT22;58741;52.672;13.548;2023-06-05T13:50:11;30.90;33.80
71084;DHT22;58741;52.672;13.548;2023-06-05T13:52:37;30.90;34.10
71084;DHT22;58741;52.672;13.548;2023-06-05T13:55:03;31.00;34.60
71084;DHT22;58741;52.672;13.548;2023-06-05T13:57:29;31.00;34.10
71084;DHT22;58741;52.672;13.548;2023-06-05T13:59:55;31.10;33.00
71084;DHT22;58741;52.672;13.548;2023-06-05T14:02:21;31.10;33.50
71084;DHT22;58741;52.672;13.548;2023-06-05T14:04:46;31.10;32.10
71084;DHT22;58741;52.672;13.548;2023-06-05T14:07:12;31.00;34.50
71084;DHT22;58741;52.672;13.548;2023-06-05T14:09:38;31.10;33.40
71084;DHT22;58741;52.672;13.548;2023-06-05T14:12:04;31.10;34.10
71084;DHT22;58741;52.672;13.548;2023-06-05T14:14:29;31.10;34.10
71084;DHT22;58741;52.672;13.548;2023-06-05T14:16:55;31.10;33.70
71084;DHT22;58741;52.672;13.548;2023-06-05T14:19:21;31.10;33.70
71084;DHT22;58741;52.672;13.548;2023-06-05T14:21:47;31.00;32.70
71084;DHT22;58741;52.672;13.548;2023-06-05T14:25:19;31.00;33.10
71084;DHT22;58741;52.672;13.548;2023-06-05T14:27:45;31.00;33.70
71084;DHT22;58741;52.672;13.548;2023-06-05T14:30:11;31.00;33.40
71084;DHT22;58741;52.672;13.548;2023-06-05T14:32:37;31.00;33.90
71084;DHT22;58741;52.672;13.548;2023-06-05T14:35:02;31.10;33.80
71084;DHT22;58741;52.672;13.548;2023-06-05T14:37:28;31.10;33.50
71084;DHT22;58741;52.672;13.548;2023-06-05T14:39:54;31.10;33.60
71084;DHT22;58741;52.672;13.548;2023-06-05T14:42:19;31.10;33.30
71084;DHT22;58741;52.672;13.548;2023-06-05T14:44:45;31.10;34.00
71084;DHT22;58741;52.672;13.548;2023-06-05T14:47:11;31.10;33.60
71084;DHT22;58741;52.672;13.548;2023-06-05T14:49:36;31.10;33.90
71084;DHT22;58741;52.672;13.548;2023-06-05T14:52:02;31.00;33.20
71084;DHT22;58741;52.672;13.548;2023-06-05T14:54:28;31.00;33.40
71084;DHT22;58741;52.672;13.548;2023-06-05T14:56:53;30.90;32.90
71084;DHT22;58741;52.672;13.548;2023-06-05T14:59:19;30.80;32.20
71084;DHT22;58741;52.672;13.548;2023-06-05T15:01:44;30.70;33.10
71084;DHT22;58741;52.672;13.548;2023-06-05T15:04:10;30.60;32.00
71084;DHT22;58741;52.672;13.548;2023-06-05T15:06:36;30.60;31.30
71084;DHT22;58741;52.672;13.548;2023-06-05T15:09:01;30.50;32.60
71084;DHT22;58741;52.672;13.548;2023-06-05T15:11:27;30.40;32.30
71084;DHT22;58741;52.672;13.548;2023-06-05T15:13:52;30.40;33.40
71084;DHT22;58741;52.672;13.548;2023-06-05T15:16:18;30.40;36.50
71084;DHT22;58741;52.672;13.548;2023-06-05T15:18:44;30.50;35.90
71084;DHT22;58741;52.672;13.548;2023-06-05T15:21:10;30.50;35.00
71084;DHT22;58741;52.672;13.548;2023-06-05T15:23:35;30.50;36.40
71084;DHT22;58741;52.672;13.548;2023-06-05T15:26:01;30.40;36.50
71084;DHT22;58741;52.672;13.548;2023-06-05T15:28:27;30.30;33.90
71084;DHT22;58741;52.672;13.548;2023-06-05T15:30:52;30.20;35.50
71084;DHT22;58741;52.672;13.548;2023-06-05T15:33:18;30.20;34.50
71084;DHT22;58741;52.672;13.548;2023-06-05T15:35:44;30.10;34.40
71084;DHT22;58741;52.672;13.548;2023-06-05T15:38:11;30.00;34.20
71084;DHT22;58741;52.672;13.548;2023-06-05T15:40:37;29.90;32.80
71084;DHT22;58741;52.672;13.548;2023-06-05T15:43:07;29.80;33.30
71084;DHT22;58741;52.672;13.548;2023-06-05T15:45:36;29.70;34.00
71084;DHT22;58741;52.672;13.548;2023-06-05T15:48:02;29.50;33.10
71084;DHT22;58741;52.672;13.548;2023-06-05T15:50:28;29.40;35.40
71084;DHT22;58741;52.672;13.548;2023-06-05T15:52:53;29.20;32.70